GOA weather

Genoa Cristoforo Colombo Airport
Genova, Liguria, Italy

Public forecast

Using degrees Celsius for public forecast. Weather courtesy of forecast.io.

Current aviation weather report (METAR) for Genoa Cristoforo Colombo Airport

Retrieved 2019/10/22 12:20 UTC (1 minute ago):

LIMJ 221220Z 05010KT CAVOK 23/16 Q1021

Aviation forecast (TAF) for Genoa Cristoforo Colombo Airport

Retrieved 2019/10/22 12:00 UTC (21 minutes ago):

TAF LIMJ 221100Z 2212/2312 03008KT 9999 SCT025